sensor_id;sensor_type;location;lat;lon;timestamp;temperature;humidity
4107;DHT22;21906;50.812;7.132;2022-09-09T00:02:27;19.10;71.20
4107;DHT22;21906;50.812;7.132;2022-09-09T00:04:34;19.10;71.50
4107;DHT22;21906;50.812;7.132;2022-09-09T00:09:46;19.10;71.70
4107;DHT22;21906;50.812;7.132;2022-09-09T00:15:19;19.00;71.60
4107;DHT22;21906;50.812;7.132;2022-09-09T00:20:55;19.00;71.70
4107;DHT22;21906;50.812;7.132;2022-09-09T00:23:35;18.90;71.70
4107;DHT22;21906;50.812;7.132;2022-09-09T00:26:14;18.90;71.90
4107;DHT22;21906;50.812;7.132;2022-09-09T00:29:14;18.90;71.90
4107;DHT22;21906;50.812;7.132;2022-09-09T00:31:35;18.90;71.90
4107;DHT22;21906;50.812;7.132;2022-09-09T00:34:14;18.90;71.90
4107;DHT22;21906;50.812;7.132;2022-09-09T00:36:42;18.90;71.90
4107;DHT22;21906;50.812;7.132;2022-09-09T00:39:38;18.90;72.00
4107;DHT22;21906;50.812;7.132;2022-09-09T00:42:16;18.80;71.90
4107;DHT22;21906;50.812;7.132;2022-09-09T00:44:51;18.80;72.30
4107;DHT22;21906;50.812;7.132;2022-09-09T00:57:53;18.80;72.60
4107;DHT22;21906;50.812;7.132;2022-09-09T01:00:27;18.80;72.50
4107;DHT22;21906;50.812;7.132;2022-09-09T01:16:43;18.70;73.20
4107;DHT22;21906;50.812;7.132;2022-09-09T01:19:20;18.70;73.30
4107;DHT22;21906;50.812;7.132;2022-09-09T01:21:57;18.70;73.30
4107;DHT22;21906;50.812;7.132;2022-09-09T01:26:56;18.60;73.20
4107;DHT22;21906;50.812;7.132;2022-09-09T01:29:24;18.70;73.30
4107;DHT22;21906;50.812;7.132;2022-09-09T01:34:20;18.60;73.50
4107;DHT22;21906;50.812;7.132;2022-09-09T01:39:24;18.60;73.50
4107;DHT22;21906;50.812;7.132;2022-09-09T01:41:50;18.70;73.50
4107;DHT22;21906;50.812;7.132;2022-09-09T01:44:16;18.70;73.40
4107;DHT22;21906;50.812;7.132;2022-09-09T01:46:43;18.70;73.60
4107;DHT22;21906;50.812;7.132;2022-09-09T01:49:09;18.70;73.50
4107;DHT22;21906;50.812;7.132;2022-09-09T01:51:36;18.70;73.40
4107;DHT22;21906;50.812;7.132;2022-09-09T01:54:04;18.70;73.50
4107;DHT22;21906;50.812;7.132;2022-09-09T02:02:18;18.80;73.40
4107;DHT22;21906;50.812;7.132;2022-09-09T02:04:48;18.80;73.40
4107;DHT22;21906;50.812;7.132;2022-09-09T02:10:34;18.80;73.50
4107;DHT22;21906;50.812;7.132;2022-09-09T02:13:09;18.80;73.30
4107;DHT22;21906;50.812;7.132;2022-09-09T02:15:57;18.80;73.10
4107;DHT22;21906;50.812;7.132;2022-09-09T02:18:51;18.80;73.00
4107;DHT22;21906;50.812;7.132;2022-09-09T02:21:17;18.80;72.90
4107;DHT22;21906;50.812;7.132;2022-09-09T02:23:45;18.80;72.70
4107;DHT22;21906;50.812;7.132;2022-09-09T02:26:13;18.70;72.80
4107;DHT22;21906;50.812;7.132;2022-09-09T02:28:46;18.70;72.90
4107;DHT22;21906;50.812;7.132;2022-09-09T02:31:13;18.70;72.70
4107;DHT22;21906;50.812;7.132;2022-09-09T02:33:44;18.70;72.90
4107;DHT22;21906;50.812;7.132;2022-09-09T02:36:12;18.80;73.00
4107;DHT22;21906;50.812;7.132;2022-09-09T02:38:45;18.70;73.00
4107;DHT22;21906;50.812;7.132;2022-09-09T02:41:17;18.80;72.80
4107;DHT22;21906;50.812;7.132;2022-09-09T02:43:43;18.80;72.90
4107;DHT22;21906;50.812;7.132;2022-09-09T02:49:09;18.80;72.90
4107;DHT22;21906;50.812;7.132;2022-09-09T02:54:37;18.80;72.80
4107;DHT22;21906;50.812;7.132;2022-09-09T02:57:12;18.80;72.90
4107;DHT22;21906;50.812;7.132;2022-09-09T02:59:40;18.70;73.00
4107;DHT22;21906;50.812;7.132;2022-09-09T03:02:05;18.70;73.40
4107;DHT22;21906;50.812;7.132;2022-09-09T03:04:31;18.70;73.30
4107;DHT22;21906;50.812;7.132;2022-09-09T03:06:58;18.70;73.10
4107;DHT22;21906;50.812;7.132;2022-09-09T03:09:24;18.70;73.10
4107;DHT22;21906;50.812;7.132;2022-09-09T03:11:51;18.80;73.20
4107;DHT22;21906;50.812;7.132;2022-09-09T03:14:17;18.70;73.30
4107;DHT22;21906;50.812;7.132;2022-09-09T03:16:47;18.70;73.30
4107;DHT22;21906;50.812;7.132;2022-09-09T03:19:12;18.50;74.00
4107;DHT22;21906;50.812;7.132;2022-09-09T03:21:38;18.50;74.30
4107;DHT22;21906;50.812;7.132;2022-09-09T03:24:04;18.50;74.40
4107;DHT22;21906;50.812;7.132;2022-09-09T03:26:30;18.60;74.50
4107;DHT22;21906;50.812;7.132;2022-09-09T03:28:57;18.60;74.70
4107;DHT22;21906;50.812;7.132;2022-09-09T03:31:22;18.60;74.40
4107;DHT22;21906;50.812;7.132;2022-09-09T03:33:48;18.60;74.00
4107;DHT22;21906;50.812;7.132;2022-09-09T03:36:14;18.60;73.80
4107;DHT22;21906;50.812;7.132;2022-09-09T03:38:40;18.60;73.80
4107;DHT22;21906;50.812;7.132;2022-09-09T03:41:06;18.60;73.70
4107;DHT22;21906;50.812;7.132;2022-09-09T03:43:33;18.60;73.50
4107;DHT22;21906;50.812;7.132;2022-09-09T03:45:59;18.70;73.10
4107;DHT22;21906;50.812;7.132;2022-09-09T03:48:25;18.70;73.00
4107;DHT22;21906;50.812;7.132;2022-09-09T03:50:54;18.70;73.00
4107;DHT22;21906;50.812;7.132;2022-09-09T03:53:22;18.80;73.00
4107;DHT22;21906;50.812;7.132;2022-09-09T03:55:50;18.80;72.90
4107;DHT22;21906;50.812;7.132;2022-09-09T03:58:18;18.80;72.80
4107;DHT22;21906;50.812;7.132;2022-09-09T04:00:57;18.80;72.80
4107;DHT22;21906;50.812;7.132;2022-09-09T04:03:24;18.80;72.60
4107;DHT22;21906;50.812;7.132;2022-09-09T04:05:51;18.80;72.70
4107;DHT22;21906;50.812;7.132;2022-09-09T04:08:18;18.80;72.60
4107;DHT22;21906;50.812;7.132;2022-09-09T04:10:48;18.80;72.60
4107;DHT22;21906;50.812;7.132;2022-09-09T04:13:14;18.90;72.50
4107;DHT22;21906;50.812;7.132;2022-09-09T04:15:41;18.90;72.70
4107;DHT22;21906;50.812;7.132;2022-09-09T04:18:07;18.90;72.80
4107;DHT22;21906;50.812;7.132;2022-09-09T04:20:32;18.90;72.80
4107;DHT22;21906;50.812;7.132;2022-09-09T04:22:58;18.90;72.90
4107;DHT22;21906;50.812;7.132;2022-09-09T04:25:24;18.80;72.90
4107;DHT22;21906;50.812;7.132;2022-09-09T04:27:57;18.80;72.80
4107;DHT22;21906;50.812;7.132;2022-09-09T04:30:24;18.90;72.90
4107;DHT22;21906;50.812;7.132;2022-09-09T04:32:50;18.90;72.90
4107;DHT22;21906;50.812;7.132;2022-09-09T04:35:16;18.90;72.60
4107;DHT22;21906;50.812;7.132;2022-09-09T04:37:42;18.90;72.50
4107;DHT22;21906;50.812;7.132;2022-09-09T04:40:08;18.90;72.40
4107;DHT22;21906;50.812;7.132;2022-09-09T04:42:38;18.90;72.50
4107;DHT22;21906;50.812;7.132;2022-09-09T04:45:05;18.90;72.50
4107;DHT22;21906;50.812;7.132;2022-09-09T04:47:32;18.90;72.60
4107;DHT22;21906;50.812;7.132;2022-09-09T04:49:58;18.90;72.60
4107;DHT22;21906;50.812;7.132;2022-09-09T04:52:24;18.90;72.50
4107;DHT22;21906;50.812;7.132;2022-09-09T04:54:49;18.90;72.50
4107;DHT22;21906;50.812;7.132;2022-09-09T04:57:15;18.90;72.50
4107;DHT22;21906;50.812;7.132;2022-09-09T04:59:40;18.90;72.40
4107;DHT22;21906;50.812;7.132;2022-09-09T05:02:06;18.90;72.40
4107;DHT22;21906;50.812;7.132;2022-09-09T05:04:32;18.90;72.20
4107;DHT22;21906;50.812;7.132;2022-09-09T05:06:58;18.90;72.10
4107;DHT22;21906;50.812;7.132;2022-09-09T05:09:24;18.90;72.10
4107;DHT22;21906;50.812;7.132;2022-09-09T05:11:50;18.90;72.20
4107;DHT22;21906;50.812;7.132;2022-09-09T05:14:16;18.90;72.30
4107;DHT22;21906;50.812;7.132;2022-09-09T05:16:44;18.80;72.60
4107;DHT22;21906;50.812;7.132;2022-09-09T05:19:10;18.90;72.40
4107;DHT22;21906;50.812;7.132;2022-09-09T05:21:37;18.90;72.20
4107;DHT22;21906;50.812;7.132;2022-09-09T05:24:03;18.90;71.80
4107;DHT22;21906;50.812;7.132;2022-09-09T05:26:28;18.90;71.60
4107;DHT22;21906;50.812;7.132;2022-09-09T05:28:55;18.90;71.70
4107;DHT22;21906;50.812;7.132;2022-09-09T05:31:21;18.90;71.40
4107;DHT22;21906;50.812;7.132;2022-09-09T05:33:47;18.90;71.10
4107;DHT22;21906;50.812;7.132;2022-09-09T05:36:16;18.90;71.00
4107;DHT22;21906;50.812;7.132;2022-09-09T05:38:43;18.90;70.80
4107;DHT22;21906;50.812;7.132;2022-09-09T05:41:10;18.90;70.60
4107;DHT22;21906;50.812;7.132;2022-09-09T05:43:41;18.90;70.80
4107;DHT22;21906;50.812;7.132;2022-09-09T05:46:20;18.90;70.80
4107;DHT22;21906;50.812;7.132;2022-09-09T05:48:47;18.90;70.50
4107;DHT22;21906;50.812;7.132;2022-09-09T05:51:14;18.90;70.50
4107;DHT22;21906;50.812;7.132;2022-09-09T05:53:44;18.90;70.40
4107;DHT22;21906;50.812;7.132;2022-09-09T05:56:22;18.80;70.30
4107;DHT22;21906;50.812;7.132;2022-09-09T05:58:49;18.80;70.30
4107;DHT22;21906;50.812;7.132;2022-09-09T06:01:20;18.80;70.30
4107;DHT22;21906;50.812;7.132;2022-09-09T06:03:50;18.80;70.20
4107;DHT22;21906;50.812;7.132;2022-09-09T06:06:20;18.90;70.20
4107;DHT22;21906;50.812;7.132;2022-09-09T06:08:54;18.90;70.50
4107;DHT22;21906;50.812;7.132;2022-09-09T06:11:31;18.90;70.20
4107;DHT22;21906;50.812;7.132;2022-09-09T06:13:57;19.00;69.80
4107;DHT22;21906;50.812;7.132;2022-09-09T06:16:24;19.00;70.00
4107;DHT22;21906;50.812;7.132;2022-09-09T06:18:51;19.10;69.80
4107;DHT22;21906;50.812;7.132;2022-09-09T06:21:21;19.10;69.30
4107;DHT22;21906;50.812;7.132;2022-09-09T06:23:47;19.10;69.20
4107;DHT22;21906;50.812;7.132;2022-09-09T06:26:18;19.10;69.40
4107;DHT22;21906;50.812;7.132;2022-09-09T06:28:45;19.20;69.50
4107;DHT22;21906;50.812;7.132;2022-09-09T06:31:14;19.30;69.80
4107;DHT22;21906;50.812;7.132;2022-09-09T06:33:43;19.30;69.90
4107;DHT22;21906;50.812;7.132;2022-09-09T06:36:14;19.30;69.70
4107;DHT22;21906;50.812;7.132;2022-09-09T06:38:41;19.40;69.30
4107;DHT22;21906;50.812;7.132;2022-09-09T06:41:08;19.50;69.10
4107;DHT22;21906;50.812;7.132;2022-09-09T06:43:34;19.50;68.10
4107;DHT22;21906;50.812;7.132;2022-09-09T06:46:21;19.50;68.30
4107;DHT22;21906;50.812;7.132;2022-09-09T06:48:47;19.50;68.20
4107;DHT22;21906;50.812;7.132;2022-09-09T06:51:23;19.40;68.20
4107;DHT22;21906;50.812;7.132;2022-09-09T06:53:53;19.50;68.30
4107;DHT22;21906;50.812;7.132;2022-09-09T06:56:25;19.50;68.30
4107;DHT22;21906;50.812;7.132;2022-09-09T06:58:53;19.50;68.20
4107;DHT22;21906;50.812;7.132;2022-09-09T07:01:22;19.50;68.00
4107;DHT22;21906;50.812;7.132;2022-09-09T07:03:50;19.50;67.80
4107;DHT22;21906;50.812;7.132;2022-09-09T07:06:18;19.60;67.10
4107;DHT22;21906;50.812;7.132;2022-09-09T07:08:52;19.60;67.40
4107;DHT22;21906;50.812;7.132;2022-09-09T07:11:20;19.60;67.50
4107;DHT22;21906;50.812;7.132;2022-09-09T07:13:46;19.60;66.90
4107;DHT22;21906;50.812;7.132;2022-09-09T07:16:13;19.60;66.80
4107;DHT22;21906;50.812;7.132;2022-09-09T07:18:40;19.60;67.00
4107;DHT22;21906;50.812;7.132;2022-09-09T07:21:08;19.60;66.40
4107;DHT22;21906;50.812;7.132;2022-09-09T07:23:34;19.60;66.20
4107;DHT22;21906;50.812;7.132;2022-09-09T07:26:01;19.60;66.10
4107;DHT22;21906;50.812;7.132;2022-09-09T07:28:27;19.60;66.00
4107;DHT22;21906;50.812;7.132;2022-09-09T07:30:58;19.70;65.70
4107;DHT22;21906;50.812;7.132;2022-09-09T07:33:25;19.80;65.10
4107;DHT22;21906;50.812;7.132;2022-09-09T07:35:51;19.90;64.30
4107;DHT22;21906;50.812;7.132;2022-09-09T07:38:17;19.90;64.90
4107;DHT22;21906;50.812;7.132;2022-09-09T07:40:44;20.10;64.10
4107;DHT22;21906;50.812;7.132;2022-09-09T07:43:10;20.30;63.90
4107;DHT22;21906;50.812;7.132;2022-09-09T07:45:37;20.40;62.60
4107;DHT22;21906;50.812;7.132;2022-09-09T07:48:03;20.40;60.90
4107;DHT22;21906;50.812;7.132;2022-09-09T07:50:30;20.40;60.00
4107;DHT22;21906;50.812;7.132;2022-09-09T07:52:56;20.40;60.50
4107;DHT22;21906;50.812;7.132;2022-09-09T07:55:22;20.40;58.80
4107;DHT22;21906;50.812;7.132;2022-09-09T07:57:51;20.30;59.40
4107;DHT22;21906;50.812;7.132;2022-09-09T08:00:17;20.30;58.70
4107;DHT22;21906;50.812;7.132;2022-09-09T08:02:44;20.30;58.70
4107;DHT22;21906;50.812;7.132;2022-09-09T08:05:11;20.30;58.90
4107;DHT22;21906;50.812;7.132;2022-09-09T08:07:38;20.20;59.70
4107;DHT22;21906;50.812;7.132;2022-09-09T08:10:04;20.20;59.80
4107;DHT22;21906;50.812;7.132;2022-09-09T08:12:30;20.20;60.00
4107;DHT22;21906;50.812;7.132;2022-09-09T08:14:55;20.30;59.30
4107;DHT22;21906;50.812;7.132;2022-09-09T08:17:21;20.30;59.40
4107;DHT22;21906;50.812;7.132;2022-09-09T08:19:47;20.30;59.10
4107;DHT22;21906;50.812;7.132;2022-09-09T08:22:12;20.30;59.00
4107;DHT22;21906;50.812;7.132;2022-09-09T08:24:38;20.30;59.30
4107;DHT22;21906;50.812;7.132;2022-09-09T08:27:04;20.40;59.50
4107;DHT22;21906;50.812;7.132;2022-09-09T08:29:30;20.50;58.90
4107;DHT22;21906;50.812;7.132;2022-09-09T08:31:57;20.50;58.20
4107;DHT22;21906;50.812;7.132;2022-09-09T08:34:25;20.50;58.10
4107;DHT22;21906;50.812;7.132;2022-09-09T08:36:52;20.60;57.90
4107;DHT22;21906;50.812;7.132;2022-09-09T08:39:20;20.60;58.40
4107;DHT22;21906;50.812;7.132;2022-09-09T08:58:21;20.80;55.70
4107;DHT22;21906;50.812;7.132;2022-09-09T09:09:15;20.90;54.30
4107;DHT22;21906;50.812;7.132;2022-09-09T09:11:45;21.00;54.00
4107;DHT22;21906;50.812;7.132;2022-09-09T09:16:56;21.20;54.10
4107;DHT22;21906;50.812;7.132;2022-09-09T09:19:23;21.40;54.00
4107;DHT22;21906;50.812;7.132;2022-09-09T09:22:13;21.40;53.70
4107;DHT22;21906;50.812;7.132;2022-09-09T09:25:10;21.40;54.40
4107;DHT22;21906;50.812;7.132;2022-09-09T09:30:42;21.40;52.70
4107;DHT22;21906;50.812;7.132;2022-09-09T09:33:15;21.20;53.10
4107;DHT22;21906;50.812;7.132;2022-09-09T09:35:43;21.20;53.00
4107;DHT22;21906;50.812;7.132;2022-09-09T09:38:21;21.20;53.00
4107;DHT22;21906;50.812;7.132;2022-09-09T09:40:53;21.20;52.30
4107;DHT22;21906;50.812;7.132;2022-09-09T09:43:32;21.20;52.30
4107;DHT22;21906;50.812;7.132;2022-09-09T09:45:58;21.10;52.10
4107;DHT22;21906;50.812;7.132;2022-09-09T09:48:26;21.10;52.20
4107;DHT22;21906;50.812;7.132;2022-09-09T09:50:57;21.20;52.20
4107;DHT22;21906;50.812;7.132;2022-09-09T09:53:29;21.30;52.20
4107;DHT22;21906;50.812;7.132;2022-09-09T09:55:58;21.40;52.20
4107;DHT22;21906;50.812;7.132;2022-09-09T09:58:27;21.40;51.50
4107;DHT22;21906;50.812;7.132;2022-09-09T10:00:56;21.50;51.50
4107;DHT22;21906;50.812;7.132;2022-09-09T10:03:23;21.50;51.60
4107;DHT22;21906;50.812;7.132;2022-09-09T10:05:49;21.60;51.50
4107;DHT22;21906;50.812;7.132;2022-09-09T10:08:16;21.80;50.90
4107;DHT22;21906;50.812;7.132;2022-09-09T10:30:14;22.10;49.00
4107;DHT22;21906;50.812;7.132;2022-09-09T10:35:53;22.10;49.60
4107;DHT22;21906;50.812;7.132;2022-09-09T11:02:41;22.30;49.10
4107;DHT22;21906;50.812;7.132;2022-09-09T11:06:04;22.40;49.40
4107;DHT22;21906;50.812;7.132;2022-09-09T11:08:21;22.40;50.60
4107;DHT22;21906;50.812;7.132;2022-09-09T11:16:52;22.70;47.70
4107;DHT22;21906;50.812;7.132;2022-09-09T11:19:26;22.80;48.40
4107;DHT22;21906;50.812;7.132;2022-09-09T11:21:53;22.80;48.10
4107;DHT22;21906;50.812;7.132;2022-09-09T11:27:14;22.90;47.60
4107;DHT22;21906;50.812;7.132;2022-09-09T11:41:07;22.90;46.90
4107;DHT22;21906;50.812;7.132;2022-09-09T11:43:48;22.80;47.50
4107;DHT22;21906;50.812;7.132;2022-09-09T11:46:18;22.70;46.90
4107;DHT22;21906;50.812;7.132;2022-09-09T11:48:57;22.60;47.40
4107;DHT22;21906;50.812;7.132;2022-09-09T11:51:28;22.60;48.00
4107;DHT22;21906;50.812;7.132;2022-09-09T11:56:43;22.60;47.90
4107;DHT22;21906;50.812;7.132;2022-09-09T11:59:29;22.70;47.90
4107;DHT22;21906;50.812;7.132;2022-09-09T12:04:54;22.80;47.70
4107;DHT22;21906;50.812;7.132;2022-09-09T12:12:38;22.70;47.50
4107;DHT22;21906;50.812;7.132;2022-09-09T12:17:44;22.60;47.20
4107;DHT22;21906;50.812;7.132;2022-09-09T12:20:17;22.60;47.00
4107;DHT22;21906;50.812;7.132;2022-09-09T12:33:37;22.50;47.80
4107;DHT22;21906;50.812;7.132;2022-09-09T12:36:13;22.40;48.10
4107;DHT22;21906;50.812;7.132;2022-09-09T12:38:41;22.40;48.50
4107;DHT22;21906;50.812;7.132;2022-09-09T12:41:19;22.40;47.80
4107;DHT22;21906;50.812;7.132;2022-09-09T12:43:45;22.40;47.90
4107;DHT22;21906;50.812;7.132;2022-09-09T12:46:23;22.40;47.30
4107;DHT22;21906;50.812;7.132;2022-09-09T12:48:52;22.40;46.40
4107;DHT22;21906;50.812;7.132;2022-09-09T12:51:28;22.50;47.40
4107;DHT22;21906;50.812;7.132;2022-09-09T12:53:55;22.60;46.90
4107;DHT22;21906;50.812;7.132;2022-09-09T12:56:24;22.70;47.30
4107;DHT22;21906;50.812;7.132;2022-09-09T12:58:56;22.70;47.60
4107;DHT22;21906;50.812;7.132;2022-09-09T13:01:31;22.60;47.30
4107;DHT22;21906;50.812;7.132;2022-09-09T13:03:57;22.60;46.70
4107;DHT22;21906;50.812;7.132;2022-09-09T13:06:28;22.40;47.70
4107;DHT22;21906;50.812;7.132;2022-09-09T13:08:56;22.40;47.50
4107;DHT22;21906;50.812;7.132;2022-09-09T13:11:31;22.20;47.90
4107;DHT22;21906;50.812;7.132;2022-09-09T13:13:59;22.20;48.70
4107;DHT22;21906;50.812;7.132;2022-09-09T13:16:31;22.10;48.30
4107;DHT22;21906;50.812;7.132;2022-09-09T13:19:17;22.10;48.60
4107;DHT22;21906;50.812;7.132;2022-09-09T13:21:43;22.00;48.30
4107;DHT22;21906;50.812;7.132;2022-09-09T13:24:31;22.10;48.30
4107;DHT22;21906;50.812;7.132;2022-09-09T13:27:28;22.10;48.60
4107;DHT22;21906;50.812;7.132;2022-09-09T13:29:55;22.20;48.70
4107;DHT22;21906;50.812;7.132;2022-09-09T13:32:22;22.20;48.60
4107;DHT22;21906;50.812;7.132;2022-09-09T13:34:57;22.40;48.30
4107;DHT22;21906;50.812;7.132;2022-09-09T13:39:54;22.70;47.80
4107;DHT22;21906;50.812;7.132;2022-09-09T13:42:26;22.90;48.20
4107;DHT22;21906;50.812;7.132;2022-09-09T13:44:52;23.00;48.20
4107;DHT22;21906;50.812;7.132;2022-09-09T13:47:21;23.40;48.00
4107;DHT22;21906;50.812;7.132;2022-09-09T13:49:49;23.70;47.00
4107;DHT22;21906;50.812;7.132;2022-09-09T13:52:16;24.00;46.30
4107;DHT22;21906;50.812;7.132;2022-09-09T13:54:47;24.20;45.90
4107;DHT22;21906;50.812;7.132;2022-09-09T13:57:19;24.30;45.30
4107;DHT22;21906;50.812;7.132;2022-09-09T13:59:46;24.10;46.20
4107;DHT22;21906;50.812;7.132;2022-09-09T14:02:12;23.90;46.50
4107;DHT22;21906;50.812;7.132;2022-09-09T14:04:38;23.80;45.80
4107;DHT22;21906;50.812;7.132;2022-09-09T14:07:15;23.60;46.70
4107;DHT22;21906;50.812;7.132;2022-09-09T14:09:41;23.30;47.70
4107;DHT22;21906;50.812;7.132;2022-09-09T14:12:14;23.20;49.00
4107;DHT22;21906;50.812;7.132;2022-09-09T14:14:40;23.00;50.00
4107;DHT22;21906;50.812;7.132;2022-09-09T14:17:08;22.90;51.20
4107;DHT22;21906;50.812;7.132;2022-09-09T14:19:33;22.70;52.60
4107;DHT22;21906;50.812;7.132;2022-09-09T14:21:59;22.80;52.70
4107;DHT22;21906;50.812;7.132;2022-09-09T14:24:25;22.60;51.80
4107;DHT22;21906;50.812;7.132;2022-09-09T14:26:51;22.60;51.50
4107;DHT22;21906;50.812;7.132;2022-09-09T14:29:17;22.60;52.10
4107;DHT22;21906;50.812;7.132;2022-09-09T14:31:42;22.60;52.30
4107;DHT22;21906;50.812;7.132;2022-09-09T14:34:08;22.50;52.10
4107;DHT22;21906;50.812;7.132;2022-09-09T14:36:36;22.40;52.00
4107;DHT22;21906;50.812;7.132;2022-09-09T14:39:03;22.60;51.80
4107;DHT22;21906;50.812;7.132;2022-09-09T14:41:29;22.70;51.50
4107;DHT22;21906;50.812;7.132;2022-09-09T14:43:55;22.80;51.60
4107;DHT22;21906;50.812;7.132;2022-09-09T14:46:21;22.80;50.10
4107;DHT22;21906;50.812;7.132;2022-09-09T14:48:47;22.70;50.40
4107;DHT22;21906;50.812;7.132;2022-09-09T14:51:22;22.70;50.00
4107;DHT22;21906;50.812;7.132;2022-09-09T14:53:50;22.90;50.10
4107;DHT22;21906;50.812;7.132;2022-09-09T14:56:18;22.90;50.00
4107;DHT22;21906;50.812;7.132;2022-09-09T14:58:44;22.90;50.50
4107;DHT22;21906;50.812;7.132;2022-09-09T15:01:15;22.90;50.30
4107;DHT22;21906;50.812;7.132;2022-09-09T15:03:43;22.90;50.50
4107;DHT22;21906;50.812;7.132;2022-09-09T15:06:14;22.80;50.80
4107;DHT22;21906;50.812;7.132;2022-09-09T15:08:44;22.50;51.30
4107;DHT22;21906;50.812;7.132;2022-09-09T15:11:11;22.50;52.00
4107;DHT22;21906;50.812;7.132;2022-09-09T15:13:39;22.50;51.30
4107;DHT22;21906;50.812;7.132;2022-09-09T15:16:11;22.40;50.90
4107;DHT22;21906;50.812;7.132;2022-09-09T15:18:37;22.40;51.10
4107;DHT22;21906;50.812;7.132;2022-09-09T15:21:15;22.30;51.70
4107;DHT22;21906;50.812;7.132;2022-09-09T15:23:41;22.20;51.80
4107;DHT22;21906;50.812;7.132;2022-09-09T15:26:08;21.90;52.30
4107;DHT22;21906;50.812;7.132;2022-09-09T15:28:35;21.90;52.60
4107;DHT22;21906;50.812;7.132;2022-09-09T15:31:05;21.80;55.90
4107;DHT22;21906;50.812;7.132;2022-09-09T15:33:32;21.40;59.50
4107;DHT22;21906;50.812;7.132;2022-09-09T15:35:59;20.90;62.10
4107;DHT22;21906;50.812;7.132;2022-09-09T15:38:25;20.70;64.10
4107;DHT22;21906;50.812;7.132;2022-09-09T15:40:56;20.40;68.10
4107;DHT22;21906;50.812;7.132;2022-09-09T15:43:22;19.70;69.50
4107;DHT22;21906;50.812;7.132;2022-09-09T15:45:52;19.40;71.90
4107;DHT22;21906;50.812;7.132;2022-09-09T15:48:30;19.20;72.50
4107;DHT22;21906;50.812;7.132;2022-09-09T15:51:03;19.00;74.00
4107;DHT22;21906;50.812;7.132;2022-09-09T15:53:29;18.90;74.80
4107;DHT22;21906;50.812;7.132;2022-09-09T15:55:55;18.90;75.70
4107;DHT22;21906;50.812;7.132;2022-09-09T15:58:21;18.90;76.80
4107;DHT22;21906;50.812;7.132;2022-09-09T16:00:47;18.90;75.10
4107;DHT22;21906;50.812;7.132;2022-09-09T16:03:13;18.90;75.50
4107;DHT22;21906;50.812;7.132;2022-09-09T16:05:38;18.90;74.40
4107;DHT22;21906;50.812;7.132;2022-09-09T16:08:04;18.90;75.20
4107;DHT22;21906;50.812;7.132;2022-09-09T16:10:29;18.90;75.80
4107;DHT22;21906;50.812;7.132;2022-09-09T16:12:56;18.90;75.50
4107;DHT22;21906;50.812;7.132;2022-09-09T16:15:21;19.00;76.10
4107;DHT22;21906;50.812;7.132;2022-09-09T16:17:48;19.00;76.90
4107;DHT22;21906;50.812;7.132;2022-09-09T16:20:14;19.00;76.70
4107;DHT22;21906;50.812;7.132;2022-09-09T16:22:40;19.00;77.50
4107;DHT22;21906;50.812;7.132;2022-09-09T16:25:07;19.10;77.00
4107;DHT22;21906;50.812;7.132;2022-09-09T16:27:33;19.20;77.80
4107;DHT22;21906;50.812;7.132;2022-09-09T16:29:59;19.20;78.40
4107;DHT22;21906;50.812;7.132;2022-09-09T16:32:25;19.20;78.30
4107;DHT22;21906;50.812;7.132;2022-09-09T16:34:50;19.30;78.10
4107;DHT22;21906;50.812;7.132;2022-09-09T16:37:16;19.30;77.70
4107;DHT22;21906;50.812;7.132;2022-09-09T16:39:43;19.20;78.70
4107;DHT22;21906;50.812;7.132;2022-09-09T16:42:08;19.10;78.80
4107;DHT22;21906;50.812;7.132;2022-09-09T16:44:35;19.20;79.00
4107;DHT22;21906;50.812;7.132;2022-09-09T16:47:00;19.20;79.10
4107;DHT22;21906;50.812;7.132;2022-09-09T16:49:26;19.20;79.70
4107;DHT22;21906;50.812;7.132;2022-09-09T16:51:53;19.30;79.40
4107;DHT22;21906;50.812;7.132;2022-09-09T16:54:19;19.30;79.50
4107;DHT22;21906;50.812;7.132;2022-09-09T16:56:47;19.30;79.60
4107;DHT22;21906;50.812;7.132;2022-09-09T16:59:16;19.30;79.60
4107;DHT22;21906;50.812;7.132;2022-09-09T17:01:44;19.40;79.90
4107;DHT22;21906;50.812;7.132;2022-09-09T17:04:18;19.90;79.60
4107;DHT22;21906;50.812;7.132;2022-09-09T17:06:50;20.60;76.50
4107;DHT22;21906;50.812;7.132;2022-09-09T17:09:17;21.60;74.10
4107;DHT22;21906;50.812;7.132;2022-09-09T17:11:43;21.90;71.20
4107;DHT22;21906;50.812;7.132;2022-09-09T17:14:13;21.80;70.90
4107;DHT22;21906;50.812;7.132;2022-09-09T17:16:38;21.70;71.30
4107;DHT22;21906;50.812;7.132;2022-09-09T17:19:06;21.40;72.00
4107;DHT22;21906;50.812;7.132;2022-09-09T17:21:33;21.20;71.90
4107;DHT22;21906;50.812;7.132;2022-09-09T17:23:59;21.00;72.80
4107;DHT22;21906;50.812;7.132;2022-09-09T17:26:28;20.90;73.50
4107;DHT22;21906;50.812;7.132;2022-09-09T17:28:55;20.60;73.80
4107;DHT22;21906;50.812;7.132;2022-09-09T17:31:24;20.50;74.60
4107;DHT22;21906;50.812;7.132;2022-09-09T17:33:51;20.30;74.90
4107;DHT22;21906;50.812;7.132;2022-09-09T17:36:21;20.20;75.30
4107;DHT22;21906;50.812;7.132;2022-09-09T17:38:48;20.10;75.50
4107;DHT22;21906;50.812;7.132;2022-09-09T17:41:20;19.90;76.00
4107;DHT22;21906;50.812;7.132;2022-09-09T17:43:47;19.90;76.50
4107;DHT22;21906;50.812;7.132;2022-09-09T17:46:21;19.90;76.30
4107;DHT22;21906;50.812;7.132;2022-09-09T17:48:49;19.80;76.40
4107;DHT22;21906;50.812;7.132;2022-09-09T17:51:19;19.70;76.60
4107;DHT22;21906;50.812;7.132;2022-09-09T17:53:48;19.60;76.80
4107;DHT22;21906;50.812;7.132;2022-09-09T17:56:16;19.50;77.00
4107;DHT22;21906;50.812;7.132;2022-09-09T17:58:42;19.50;77.20
4107;DHT22;21906;50.812;7.132;2022-09-09T18:01:14;19.40;76.80
4107;DHT22;21906;50.812;7.132;2022-09-09T18:03:41;19.40;76.60
4107;DHT22;21906;50.812;7.132;2022-09-09T18:06:16;19.30;76.40
4107;DHT22;21906;50.812;7.132;2022-09-09T18:08:50;19.30;76.60
4107;DHT22;21906;50.812;7.132;2022-09-09T18:11:18;19.20;76.50
4107;DHT22;21906;50.812;7.132;2022-09-09T18:13:53;19.10;77.10
4107;DHT22;21906;50.812;7.132;2022-09-09T18:16:20;19.10;76.90
4107;DHT22;21906;50.812;7.132;2022-09-09T18:18:47;19.10;76.80
4107;DHT22;21906;50.812;7.132;2022-09-09T18:21:15;19.10;76.80
4107;DHT22;21906;50.812;7.132;2022-09-09T18:23:43;19.00;76.60
4107;DHT22;21906;50.812;7.132;2022-09-09T18:26:13;18.90;75.40
4107;DHT22;21906;50.812;7.132;2022-09-09T18:28:40;18.90;74.80
4107;DHT22;21906;50.812;7.132;2022-09-09T18:31:12;19.00;74.30
4107;DHT22;21906;50.812;7.132;2022-09-09T18:33:40;19.00;74.80
4107;DHT22;21906;50.812;7.132;2022-09-09T18:36:18;18.90;73.90
4107;DHT22;21906;50.812;7.132;2022-09-09T18:38:44;18.90;74.10
4107;DHT22;21906;50.812;7.132;2022-09-09T18:41:20;18.90;73.80
4107;DHT22;21906;50.812;7.132;2022-09-09T18:43:47;18.90;73.10
4107;DHT22;21906;50.812;7.132;2022-09-09T18:46:14;18.90;72.90
4107;DHT22;21906;50.812;7.132;2022-09-09T18:48:44;18.90;72.50
4107;DHT22;21906;50.812;7.132;2022-09-09T18:51:13;18.90;73.00
4107;DHT22;21906;50.812;7.132;2022-09-09T18:53:39;18.90;72.70
4107;DHT22;21906;50.812;7.132;2022-09-09T18:56:08;18.90;72.20
4107;DHT22;21906;50.812;7.132;2022-09-09T18:58:35;18.90;72.30